Time;durP1;ratioP1;P1;durP2;ratioP2;P2;SDS_P1;SDS_P2;PMS_P1;PMS_P2;Temp;Humidity;BMP_temperature;BMP_pressure;BME280_temperature;BME280_humidity;BME280_pressure;Samples;Min_cycle;Max_cycle;Signal;HPM_P1;HPM_P2
2021/04/05 00:00:11;;;;;;;51.05;14.35;;;9.40;99.90;;;;;;5067969;28;20439;-76
2021/04/05 00:02:38;;;;;;;52.60;14.40;;;9.50;99.90;;;;;;5059660;28;20409;-76
2021/04/05 00:05:08;;;;;;;56.60;14.85;;;9.50;99.90;;;;;;5047319;28;20431;-76
2021/04/05 00:07:35;;;;;;;58.22;14.93;;;9.50;99.90;;;;;;5064840;28;20514;-76
2021/04/05 00:10:06;;;;;;;56.73;14.63;;;9.60;99.90;;;;;;5065742;28;20506;-76
2021/04/05 00:12:32;;;;;;;49.03;14.10;;;9.60;99.90;;;;;;5064358;28;20403;-76
2021/04/05 00:14:58;;;;;;;53.90;14.15;;;9.60;99.90;;;;;;5042226;28;20919;-77
2021/04/05 00:17:25;;;;;;;61.07;14.37;;;9.60;99.90;;;;;;5045996;28;20427;-74
2021/04/05 00:19:51;;;;;;;58.95;14.35;;;9.70;99.90;;;;;;5055403;28;20781;-75
2021/04/05 00:22:18;;;;;;;52.95;14.63;;;9.70;99.90;;;;;;5066180;28;20473;-75
2021/04/05 00:24:45;;;;;;;57.45;14.80;;;9.80;99.90;;;;;;5059972;28;20412;-76
2021/04/05 00:27:11;;;;;;;57.15;14.77;;;9.80;99.90;;;;;;5051080;28;20419;-75
2021/04/05 00:29:37;;;;;;;51.25;14.25;;;9.80;99.90;;;;;;5059246;28;20889;-76
2021/04/05 00:32:05;;;;;;;51.80;13.90;;;9.90;99.90;;;;;;5065532;28;20846;-76
2021/04/05 00:34:31;;;;;;;50.77;14.37;;;9.90;99.90;;;;;;5062659;28;20427;-75
2021/04/05 00:36:58;;;;;;;56.85;14.80;;;10.00;99.90;;;;;;5052396;28;20429;-75
2021/04/05 00:39:25;;;;;;;49.45;13.98;;;10.00;99.90;;;;;;5044940;28;20503;-75
2021/04/05 00:41:51;;;;;;;43.65;14.30;;;10.00;99.90;;;;;;5059920;28;20451;-76
2021/04/05 00:44:18;;;;;;;40.17;14.65;;;10.00;99.90;;;;;;5046334;28;20939;-78
2021/04/05 00:46:44;;;;;;;42.60;14.77;;;10.00;99.90;;;;;;5041653;28;20449;-76
2021/04/05 00:49:11;;;;;;;40.70;14.50;;;10.00;99.90;;;;;;5042361;28;20900;-75
2021/04/05 00:51:37;;;;;;;41.33;14.93;;;10.00;99.90;;;;;;5058833;28;20459;-77
2021/04/05 00:54:04;;;;;;;34.95;14.15;;;10.00;99.60;;;;;;5054949;28;20413;-75
2021/04/05 00:56:32;;;;;;;40.08;14.00;;;10.00;99.30;;;;;;5058445;28;20431;-76
2021/04/05 00:58:58;;;;;;;38.17;14.15;;;10.00;99.00;;;;;;5046322;28;20431;-76
2021/04/05 01:01:26;;;;;;;40.50;12.98;;;10.00;99.10;;;;;;5062019;28;20963;-76
2021/04/05 01:03:54;;;;;;;39.40;14.20;;;10.00;98.80;;;;;;5061032;28;20408;-76
2021/04/05 01:06:24;;;;;;;40.03;13.43;;;10.00;98.80;;;;;;5048674;28;20427;-76
2021/04/05 01:08:51;;;;;;;35.55;13.45;;;10.00;98.80;;;;;;5049581;28;20430;-76
2021/04/05 01:11:19;;;;;;;38.47;13.90;;;9.90;98.70;;;;;;5059918;28;20461;-75
2021/04/05 01:13:48;;;;;;;32.80;13.13;;;9.90;98.60;;;;;;5059310;28;20510;-76
2021/04/05 01:16:15;;;;;;;40.77;13.33;;;10.00;98.40;;;;;;5059910;28;20550;-76
2021/04/05 01:18:42;;;;;;;41.47;14.02;;;10.00;98.20;;;;;;5061958;28;20419;-76
2021/04/05 01:21:08;;;;;;;34.60;12.35;;;9.90;98.00;;;;;;5048137;28;20439;-76
2021/04/05 01:23:36;;;;;;;37.38;12.60;;;9.90;98.10;;;;;;5062658;28;20484;-76
2021/04/05 01:26:03;;;;;;;42.40;12.38;;;10.00;97.70;;;;;;5056725;28;20907;-75
2021/04/05 01:28:30;;;;;;;39.50;11.70;;;10.00;97.50;;;;;;5057276;28;20438;-76
2021/04/05 01:30:58;;;;;;;33.70;12.40;;;10.00;97.40;;;;;;5053011;28;20420;-76
2021/04/05 01:33:28;;;;;;;33.95;12.52;;;10.00;97.30;;;;;;5045869;28;20437;-76
2021/04/05 01:35:57;;;;;;;38.15;12.00;;;10.00;97.30;;;;;;5057881;28;20420;-76
2021/04/05 01:38:25;;;;;;;34.75;13.10;;;10.00;97.30;;;;;;5058561;28;20506;-76
2021/04/05 01:40:54;;;;;;;35.88;12.75;;;10.00;97.30;;;;;;5041073;28;20427;-76
2021/04/05 01:43:21;;;;;;;36.67;12.75;;;10.00;97.20;;;;;;5039572;28;20575;-77
2021/04/05 01:45:47;;;;;;;31.20;12.13;;;10.00;97.10;;;;;;5041158;28;20789;-76
2021/04/05 01:48:14;;;;;;;37.77;12.47;;;10.00;97.10;;;;;;5059986;28;20494;-76
2021/04/05 01:50:42;;;;;;;32.10;12.70;;;10.00;97.00;;;;;;5060185;28;20771;-76
2021/04/05 01:53:09;;;;;;;35.92;12.02;;;10.00;96.90;;;;;;5058227;28;20453;-75
2021/04/05 01:55:37;;;;;;;33.97;11.98;;;10.00;96.90;;;;;;5048072;28;20455;-77
2021/04/05 01:58:06;;;;;;;34.75;11.90;;;10.00;97.00;;;;;;5064449;28;20560;-76
2021/04/05 02:00:36;;;;;;;33.40;11.73;;;10.00;96.90;;;;;;5059198;28;20419;-75
2021/04/05 02:03:08;;;;;;;37.13;12.00;;;10.00;96.90;;;;;;5060931;28;20515;-75
2021/04/05 02:05:37;;;;;;;32.60;11.73;;;10.00;97.00;;;;;;5057102;28;20420;-76
2021/04/05 02:08:05;;;;;;;36.60;11.85;;;10.00;97.00;;;;;;5056266;28;20410;-75
2021/04/05 02:10:32;;;;;;;37.75;12.63;;;10.00;97.00;;;;;;5042107;28;20425;-75
2021/04/05 02:12:59;;;;;;;30.60;11.32;;;10.10;97.10;;;;;;5058950;28;20460;-76
2021/04/05 02:15:27;;;;;;;38.70;11.43;;;10.10;97.00;;;;;;5059572;28;20429;-76
2021/04/05 02:17:54;;;;;;;35.08;12.05;;;10.10;97.00;;;;;;5060029;28;20867;-76
2021/04/05 02:20:21;;;;;;;35.42;12.00;;;10.10;97.00;;;;;;5062355;28;20459;-76
2021/04/05 02:22:51;;;;;;;29.48;11.73;;;10.00;96.90;;;;;;5058961;28;20420;-75
2021/04/05 02:25:19;;;;;;;34.95;12.20;;;10.10;96.90;;;;;;5052573;28;20420;-75
2021/04/05 02:27:47;;;;;;;30.23;11.93;;;10.10;96.90;;;;;;5060200;28;20899;-75
2021/04/05 02:30:22;;;;;;;28.88;11.75;;;10.00;97.00;;;;;;5058333;28;20906;-76
2021/04/05 02:32:52;;;;;;;40.53;11.82;;;10.00;97.00;;;;;;5047055;28;20455;-75
2021/04/05 02:35:19;;;;;;;33.45;11.90;;;10.00;97.40;;;;;;5057340;28;20432;-77
2021/04/05 02:37:46;;;;;;;32.03;11.80;;;10.00;97.00;;;;;;5058324;28;20793;-76
2021/04/05 02:40:13;;;;;;;33.45;11.95;;;10.00;97.10;;;;;;5046151;28;20429;-75
2021/04/05 02:42:41;;;;;;;33.83;12.03;;;10.00;97.10;;;;;;5054693;28;20416;-76
2021/04/05 02:45:09;;;;;;;30.63;11.60;;;10.00;97.00;;;;;;5054851;28;20412;-75
2021/04/05 02:47:36;;;;;;;32.50;11.27;;;10.00;97.00;;;;;;5040221;28;20424;-76
2021/04/05 02:50:06;;;;;;;34.17;11.50;;;10.00;96.90;;;;;;5053806;28;20460;-75
2021/04/05 02:52:35;;;;;;;28.40;12.02;;;10.10;96.90;;;;;;5063789;28;20512;-76
2021/04/05 02:55:03;;;;;;;31.63;12.00;;;10.10;96.80;;;;;;5041071;28;20539;-75
2021/04/05 02:57:32;;;;;;;31.05;11.98;;;10.10;96.70;;;;;;5060844;28;20431;-75
2021/04/05 02:59:59;;;;;;;28.73;11.88;;;10.10;96.70;;;;;;5055497;28;20797;-75
2021/04/05 03:02:26;;;;;;;30.13;11.70;;;10.10;96.70;;;;;;5043180;28;20428;-75
2021/04/05 03:04:54;;;;;;;32.40;12.15;;;10.10;96.70;;;;;;5058270;28;20425;-75
2021/04/05 03:07:23;;;;;;;29.10;12.07;;;10.10;96.80;;;;;;5066346;28;20445;-75
2021/04/05 03:09:50;;;;;;;34.60;12.00;;;10.10;96.70;;;;;;5064097;28;20415;-75
2021/04/05 03:12:17;;;;;;;32.47;12.07;;;10.10;96.80;;;;;;5059871;28;20417;-75
2021/04/05 03:14:44;;;;;;;30.55;11.65;;;10.10;96.80;;;;;;5046754;28;20432;-74
2021/04/05 03:17:11;;;;;;;34.30;11.90;;;10.10;96.80;;;;;;5057291;28;20418;-74
2021/04/05 03:19:40;;;;;;;31.92;11.63;;;10.20;96.90;;;;;;5060246;28;20499;-75
2021/04/05 03:22:08;;;;;;;29.05;11.75;;;10.20;96.80;;;;;;5065346;28;20416;-74
2021/04/05 03:24:37;;;;;;;31.98;11.93;;;10.20;96.80;;;;;;5041019;28;20919;-76
2021/04/05 03:27:05;;;;;;;30.92;11.30;;;10.20;96.80;;;;;;5048136;28;20431;-76
2021/04/05 03:29:34;;;;;;;30.25;11.30;;;10.20;96.80;;;;;;5066808;28;20419;-74
2021/04/05 03:32:02;;;;;;;32.25;12.35;;;10.20;96.80;;;;;;5063706;28;20427;-75
2021/04/05 03:34:31;;;;;;;33.65;11.57;;;10.20;96.90;;;;;;5065051;28;20430;-76
2021/04/05 03:37:01;;;;;;;30.07;11.77;;;10.20;96.90;;;;;;5060769;28;20510;-75
2021/04/05 03:39:28;;;;;;;33.03;12.48;;;10.20;97.00;;;;;;5059711;28;20415;-75
2021/04/05 03:42:02;;;;;;;32.05;12.50;;;10.30;97.00;;;;;;5056049;28;20437;-75
2021/04/05 03:44:37;;;;;;;32.08;12.00;;;10.20;97.00;;;;;;5057584;28;20407;-75
2021/04/05 03:47:10;;;;;;;33.00;12.50;;;10.30;97.10;;;;;;5060772;28;20594;-76
2021/04/05 03:49:40;;;;;;;31.55;12.07;;;10.30;97.10;;;;;;5062330;28;20547;-75
2021/04/05 03:52:12;;;;;;;38.17;12.32;;;10.30;97.10;;;;;;5060374;28;20447;-75
2021/04/05 03:54:44;;;;;;;32.00;12.25;;;10.30;97.10;;;;;;5060241;28;21059;-75
2021/04/05 03:57:14;;;;;;;32.60;12.32;;;10.30;97.20;;;;;;5060701;28;20933;-76
2021/04/05 03:59:44;;;;;;;30.70;11.27;;;10.30;97.10;;;;;;5055869;28;20797;-75
2021/04/05 04:02:15;;;;;;;33.40;11.48;;;10.30;97.00;;;;;;5044395;28;20432;-74
2021/04/05 04:04:49;;;;;;;31.05;11.40;;;10.30;97.00;;;;;;5046309;28;20416;-75
2021/04/05 04:07:22;;;;;;;38.75;12.48;;;10.30;97.00;;;;;;5045591;28;20984;-74
2021/04/05 04:09:51;;;;;;;31.70;11.23;;;10.30;97.00;;;;;;5042940;28;20421;-75
2021/04/05 04:12:22;;;;;;;38.80;11.97;;;10.30;97.00;;;;;;5043795;28;20777;-74
2021/04/05 04:14:49;;;;;;;32.03;11.02;;;10.30;97.00;;;;;;5052736;28;20482;-78
2021/04/05 04:17:18;;;;;;;33.70;11.00;;;10.30;96.90;;;;;;5056020;28;20448;-75
2021/04/05 04:19:45;;;;;;;28.00;10.35;;;10.30;96.80;;;;;;5040613;28;20438;-76
2021/04/05 04:22:13;;;;;;;29.23;10.10;;;10.30;96.60;;;;;;5062566;28;20492;-75
2021/04/05 04:24:40;;;;;;;22.45;5.78;;;10.30;96.40;;;;;;5063083;28;20498;-75
2021/04/05 04:27:08;;;;;;;20.70;3.70;;;10.30;96.20;;;;;;5062471;28;22002;-74
2021/04/05 04:29:35;;;;;;;17.27;3.45;;;10.30;96.70;;;;;;5040963;28;20427;-73
2021/04/05 04:32:02;;;;;;;17.70;3.00;;;10.20;97.30;;;;;;5058664;28;20419;-75
2021/04/05 04:34:28;;;;;;;16.73;3.00;;;10.10;97.20;;;;;;5050990;28;20431;-75
2021/04/05 04:37:02;;;;;;;17.23;3.70;;;10.00;96.80;;;;;;5042240;28;20517;-75
2021/04/05 04:39:29;;;;;;;14.80;3.03;;;9.80;96.80;;;;;;5038728;28;20513;-76
2021/04/05 04:41:56;;;;;;;18.88;3.30;;;9.70;96.90;;;;;;5041986;28;20478;-76
2021/04/05 04:44:22;;;;;;;16.98;3.00;;;9.60;97.00;;;;;;5039385;28;20519;-77
2021/04/05 04:46:49;;;;;;;12.38;2.47;;;9.50;96.90;;;;;;5039587;28;20872;-75
2021/04/05 04:49:16;;;;;;;11.03;2.40;;;9.40;96.30;;;;;;5041108;28;20412;-75
2021/04/05 04:51:42;;;;;;;16.55;2.90;;;9.20;95.40;;;;;;5047563;28;20417;-76
2021/04/05 04:54:10;;;;;;;16.90;2.95;;;9.00;95.30;;;;;;5036906;28;20564;-75
2021/04/05 04:56:38;;;;;;;17.55;2.85;;;8.90;95.50;;;;;;5048402;28;20446;-76
2021/04/05 04:59:06;;;;;;;15.48;2.72;;;8.80;96.00;;;;;;5043906;28;20420;-74
2021/04/05 05:01:34;;;;;;;14.35;2.78;;;8.80;96.10;;;;;;5039883;28;20434;-74
2021/04/05 05:04:05;;;;;;;14.48;2.78;;;8.80;95.50;;;;;;5044072;28;20426;-75
2021/04/05 05:06:33;;;;;;;18.58;2.72;;;8.80;95.70;;;;;;5038522;28;20485;-77
2021/04/05 05:09:00;;;;;;;14.65;2.75;;;8.80;95.50;;;;;;5037947;28;21239;-77
2021/04/05 05:11:28;;;;;;;18.87;3.00;;;8.80;95.40;;;;;;5043483;28;20419;-76
2021/04/05 05:13:57;;;;;;;17.75;3.05;;;8.80;94.90;;;;;;5034117;28;20782;-75
2021/04/05 05:16:24;;;;;;;20.48;3.35;;;8.80;95.00;;;;;;5044303;28;20481;-76
2021/04/05 05:18:52;;;;;;;18.95;3.30;;;8.90;94.80;;;;;;5037560;28;20415;-75
2021/04/05 05:21:25;;;;;;;22.63;3.42;;;8.90;94.60;;;;;;5037635;28;20425;-75
2021/04/05 05:23:53;;;;;;;21.50;3.67;;;8.90;94.70;;;;;;5037496;28;20770;-75
2021/04/05 05:26:22;;;;;;;21.30;3.80;;;8.90;94.80;;;;;;5035335;28;20854;-75
2021/04/05 05:28:52;;;;;;;19.85;3.45;;;8.90;94.80;;;;;;5043212;28;20504;-74
2021/04/05 05:31:19;;;;;;;17.00;3.10;;;8.90;95.10;;;;;;5041976;28;20421;-74
2021/04/05 05:33:46;;;;;;;18.50;3.30;;;8.90;95.50;;;;;;5038920;28;20409;-74
2021/04/05 05:36:15;;;;;;;15.53;2.60;;;8.80;96.10;;;;;;5040855;28;20508;-74
2021/04/05 05:38:42;;;;;;;15.30;2.45;;;8.80;96.00;;;;;;5042135;28;20484;-74
2021/04/05 05:41:15;;;;;;;16.42;2.60;;;8.70;95.30;;;;;;5040767;28;20421;-75
2021/04/05 05:43:47;;;;;;;16.17;2.97;;;8.60;94.40;;;;;;5042592;28;20407;-75
2021/04/05 05:46:22;;;;;;;14.67;2.30;;;8.60;94.00;;;;;;5042380;28;21791;-75
2021/04/05 05:48:59;;;;;;;11.57;2.40;;;8.50;94.20;;;;;;5041508;28;20423;-75
2021/04/05 05:51:36;;;;;;;11.93;2.33;;;8.50;94.20;;;;;;5038550;28;20401;-74
2021/04/05 05:54:12;;;;;;;14.43;2.30;;;8.40;94.20;;;;;;5036773;28;20426;-75
2021/04/05 05:56:45;;;;;;;12.60;2.20;;;8.40;94.30;;;;;;5038046;28;20428;-75
2021/04/05 05:59:24;;;;;;;14.85;2.70;;;8.30;94.80;;;;;;5038346;28;20440;-75
2021/04/05 06:02:01;;;;;;;18.23;3.42;;;8.20;95.60;;;;;;5041613;28;20416;-74
2021/04/05 06:04:43;;;;;;;11.48;2.33;;;8.20;96.40;;;;;;5043071;28;20413;-73
2021/04/05 06:07:19;;;;;;;19.43;3.00;;;8.10;96.50;;;;;;5037713;28;20438;-74
2021/04/05 06:10:10;;;;;;;21.23;3.40;;;8.10;97.10;;;;;;5041004;28;20470;-76
2021/04/05 06:12:45;;;;;;;20.50;3.42;;;8.10;97.00;;;;;;5037923;28;20466;-75
2021/04/05 06:15:17;;;;;;;17.10;2.70;;;8.10;96.80;;;;;;5039003;28;20524;-76
2021/04/05 06:18:07;;;;;;;19.63;2.83;;;8.00;96.60;;;;;;5041419;28;20419;-76
2021/04/05 06:20:39;;;;;;;19.70;3.33;;;8.00;96.40;;;;;;5040768;28;20419;-78
2021/04/05 06:23:37;;;;;;;23.02;3.08;;;7.90;96.10;;;;;;5038292;28;20439;-74
2021/04/05 06:26:13;;;;;;;19.33;3.70;;;7.90;96.20;;;;;;5043506;28;20514;-75
2021/04/05 06:28:53;;;;;;;24.38;4.22;;;7.90;95.60;;;;;;5036103;28;20437;-76
2021/04/05 06:32:00;;;;;;;29.95;4.72;;;7.90;94.20;;;;;;5040429;28;20802;-76
2021/04/05 06:34:48;;;;;;;23.98;4.47;;;7.90;93.10;;;;;;5034449;28;20423;-78
2021/04/05 06:37:25;;;;;;;30.27;4.70;;;7.90;93.00;;;;;;5047822;28;20435;-76
2021/04/05 06:39:57;;;;;;;30.08;5.20;;;7.90;92.50;;;;;;5045155;28;20514;-77
2021/04/05 06:42:46;;;;;;;26.55;4.75;;;7.80;91.50;;;;;;5063034;28;20419;-76
2021/04/05 06:45:44;;;;;;;27.43;5.07;;;7.80;91.60;;;;;;5059693;28;20400;-75
2021/04/05 06:48:37;;;;;;;26.20;5.07;;;7.70;91.40;;;;;;5064632;28;20407;-75
2021/04/05 06:51:10;;;;;;;21.88;3.83;;;7.60;91.60;;;;;;5060586;28;20436;-75
2021/04/05 06:53:58;;;;;;;27.20;4.32;;;7.50;91.10;;;;;;5066389;28;20210;-75
2021/04/05 06:56:32;;;;;;;17.67;3.00;;;7.10;91.40;;;;;;5065586;28;20430;-77
2021/04/05 06:59:21;;;;;;;18.55;3.15;;;7.10;90.90;;;;;;5061536;28;20202;-77
2021/04/05 07:02:15;;;;;;;18.67;2.70;;;6.80;91.10;;;;;;5058252;28;20210;-76
2021/04/05 07:04:48;;;;;;;26.58;3.30;;;6.60;91.40;;;;;;5061276;28;20632;-74
2021/04/05 07:07:26;;;;;;;31.38;4.03;;;6.50;91.60;;;;;;5050637;28;20198;-76
2021/04/05 07:09:58;;;;;;;17.52;3.05;;;6.40;91.60;;;;;;5068717;28;20198;-77
2021/04/05 07:12:36;;;;;;;26.85;2.72;;;6.40;92.10;;;;;;5063153;28;20221;-75
2021/04/05 07:15:27;;;;;;;17.85;2.90;;;6.40;91.80;;;;;;5062157;28;20233;-75
2021/04/05 07:18:09;;;;;;;19.45;3.15;;;6.40;91.60;;;;;;5055648;28;20416;-74
2021/04/05 07:20:48;;;;;;;19.13;3.08;;;6.60;89.50;;;;;;5057041;28;20966;-76
2021/04/05 07:23:30;;;;;;;15.77;3.10;;;6.90;86.20;;;;;;5049156;28;20430;-73
2021/04/05 07:26:14;;;;;;;20.52;3.15;;;7.00;84.90;;;;;;5044293;28;21008;-76
2021/04/05 07:28:55;;;;;;;18.70;3.20;;;7.10;83.50;;;;;;5058028;28;20473;-76
2021/04/05 07:31:32;;;;;;;23.00;3.50;;;7.20;83.70;;;;;;5060461;28;20429;-73
2021/04/05 07:34:09;;;;;;;24.77;3.47;;;7.20;83.20;;;;;;5057672;28;20423;-74
2021/04/05 07:36:47;;;;;;;21.13;3.45;;;7.20;85.30;;;;;;5058623;28;20459;-75
2021/04/05 07:39:23;;;;;;;11.63;2.73;;;7.20;85.70;;;;;;5045831;28;20426;-76
2021/04/05 07:41:56;;;;;;;13.23;2.58;;;7.20;84.60;;;;;;5047503;28;20431;-76
2021/04/05 07:44:43;;;;;;;11.57;1.98;;;7.20;84.10;;;;;;5061942;28;20499;-76
2021/04/05 07:47:20;;;;;;;10.20;1.98;;;7.20;80.70;;;;;;5046509;28;20435;-75
2021/04/05 07:49:52;;;;;;;11.90;2.00;;;7.20;79.00;;;;;;5052984;28;20849;-76
2021/04/05 07:52:24;;;;;;;12.00;2.15;;;7.20;78.00;;;;;;5060774;28;20789;-75
2021/04/05 07:54:52;;;;;;;11.32;2.30;;;7.20;77.40;;;;;;5043237;28;20442;-75
2021/04/05 07:57:26;;;;;;;12.00;2.22;;;7.20;75.90;;;;;;5055862;28;20417;-75
2021/04/05 07:59:58;;;;;;;11.85;2.20;;;7.30;75.70;;;;;;5042337;28;20942;-75
2021/04/05 08:02:39;;;;;;;12.85;2.40;;;7.30;76.80;;;;;;5059097;28;20440;-76
2021/04/05 08:05:21;;;;;;;12.90;2.60;;;7.30;81.90;;;;;;5047523;28;20911;-77
2021/04/05 08:08:06;;;;;;;15.27;2.33;;;7.20;85.20;;;;;;5062364;28;20425;-76
2021/04/05 08:10:44;;;;;;;12.50;2.13;;;7.10;87.60;;;;;;5062443;28;20427;-76
2021/04/05 08:13:18;;;;;;;10.27;1.87;;;7.00;89.10;;;;;;5056824;28;20424;-77
2021/04/05 08:15:59;;;;;;;10.13;1.58;;;6.90;89.70;;;;;;5044405;28;20428;-76
2021/04/05 08:18:30;;;;;;;6.57;1.60;;;6.90;88.20;;;;;;5061054;28;20889;-77
2021/04/05 08:21:06;;;;;;;7.18;1.40;;;6.80;86.50;;;;;;5061016;28;20461;-76
2021/04/05 08:23:44;;;;;;;6.93;1.40;;;6.80;84.80;;;;;;5054712;28;20904;-77
2021/04/05 08:26:22;;;;;;;10.03;1.70;;;6.80;84.40;;;;;;5062885;28;20455;-76
2021/04/05 08:28:52;;;;;;;15.27;2.60;;;6.70;88.00;;;;;;5055262;28;20425;-77
2021/04/05 08:31:36;;;;;;;14.68;2.65;;;6.50;90.50;;;;;;5063110;28;20508;-77
2021/04/05 08:34:15;;;;;;;16.73;2.80;;;6.50;91.40;;;;;;5060614;28;20437;-76
2021/04/05 08:37:02;;;;;;;12.00;1.90;;;6.40;91.20;;;;;;5048607;28;20477;-78
2021/04/05 08:39:37;;;;;;;9.20;1.70;;;6.30;88.60;;;;;;5059389;28;20470;-75
2021/04/05 08:42:12;;;;;;;7.93;1.63;;;6.30;82.50;;;;;;5062319;28;20433;-76
2021/04/05 08:44:45;;;;;;;10.93;1.85;;;6.30;81.40;;;;;;5038224;28;20437;-77
2021/04/05 08:47:17;;;;;;;9.82;2.47;;;6.30;80.20;;;;;;5059605;28;20429;-76
2021/04/05 08:49:47;;;;;;;10.73;1.92;;;6.30;78.60;;;;;;5063187;28;20423;-75
2021/04/05 08:52:14;;;;;;;13.90;1.88;;;6.40;78.30;;;;;;5062823;28;20427;-77
2021/04/05 08:54:41;;;;;;;15.32;2.00;;;6.50;77.20;;;;;;5062077;28;20425;-77
2021/04/05 08:57:11;;;;;;;14.48;2.38;;;6.50;77.00;;;;;;5047982;28;21273;-76
2021/04/05 08:59:40;;;;;;;13.15;2.40;;;6.50;75.70;;;;;;5040459;28;20641;-76
2021/04/05 09:02:18;;;;;;;13.43;2.53;;;6.60;75.10;;;;;;5058608;28;20429;-76
2021/04/05 09:04:47;;;;;;;17.17;2.60;;;6.60;75.20;;;;;;5051519;28;20417;-76
2021/04/05 09:07:26;;;;;;;14.38;3.05;;;6.70;76.80;;;;;;5055514;28;20520;-76
2021/04/05 09:09:56;;;;;;;20.60;3.08;;;6.70;77.40;;;;;;5045698;28;20429;-76
2021/04/05 09:12:25;;;;;;;18.55;2.72;;;6.80;78.50;;;;;;5058210;28;20509;-78
2021/04/05 09:15:15;;;;;;;19.58;3.03;;;6.90;78.00;;;;;;5044126;28;20514;-76
2021/04/05 09:17:57;;;;;;;21.75;3.28;;;6.90;78.60;;;;;;5046549;28;20483;-77
2021/04/05 09:21:02;;;;;;;15.95;2.83;;;7.10;79.50;;;;;;5059445;28;20431;-76
2021/04/05 09:23:56;;;;;;;16.17;2.70;;;7.00;78.60;;;;;;5043100;28;20431;-77
2021/04/05 09:27:04;;;;;;;18.40;2.92;;;7.00;77.50;;;;;;5061884;28;20460;-76
2021/04/05 09:29:45;;;;;;;21.77;2.92;;;6.90;77.90;;;;;;5021059;28;20428;-76
2021/04/05 09:32:59;;;;;;;14.40;2.73;;;6.90;79.90;;;;;;5059975;28;20425;-77
2021/04/05 09:35:37;;;;;;;15.88;2.50;;;6.90;81.40;;;;;;5058913;28;20431;-78
2021/04/05 09:38:30;;;;;;;14.23;2.42;;;6.90;82.30;;;;;;5055195;28;20425;-77
2021/04/05 09:41:17;;;;;;;15.33;2.40;;;6.90;81.90;;;;;;5058997;28;20415;-77
2021/04/05 09:44:35;;;;;;;16.27;2.80;;;6.90;80.50;;;;;;5059155;28;20421;-77
2021/04/05 09:47:23;;;;;;;14.98;2.80;;;6.90;78.50;;;;;;5044608;28;20416;-77
2021/04/05 09:50:05;;;;;;;11.45;2.55;;;6.90;76.30;;;;;;5059351;28;20430;-76
2021/04/05 09:52:50;;;;;;;14.82;2.67;;;6.80;69.30;;;;;;5040781;28;20781;-76
2021/04/05 09:55:22;;;;;;;11.23;2.27;;;6.80;66.10;;;;;;5059346;28;20907;-79
2021/04/05 09:57:56;;;;;;;13.38;2.42;;;6.80;62.40;;;;;;5045256;28;20432;-77
2021/04/05 10:00:23;;;;;;;11.33;2.30;;;6.80;63.00;;;;;;5062129;28;20451;-77
2021/04/05 10:02:53;;;;;;;11.03;2.07;;;6.90;64.40;;;;;;5061403;28;20457;-76
2021/04/05 10:05:22;;;;;;;14.88;2.08;;;6.90;61.30;;;;;;5057806;28;20456;-76
2021/04/05 10:07:50;;;;;;;14.88;2.40;;;6.90;61.90;;;;;;5063100;28;20410;-76
2021/04/05 10:10:18;;;;;;;17.63;2.40;;;7.00;68.20;;;;;;5043978;28;20434;-76
2021/04/05 10:12:47;;;;;;;15.50;2.33;;;7.10;70.20;;;;;;5061363;28;21011;-77
2021/04/05 10:15:17;;;;;;;13.53;2.37;;;7.10;70.40;;;;;;5044152;28;20449;-76
2021/04/05 10:17:48;;;;;;;8.52;1.83;;;7.20;68.60;;;;;;5050827;28;20438;-77
2021/04/05 10:20:15;;;;;;;11.52;1.98;;;7.20;64.30;;;;;;5065368;28;20619;-77
2021/04/05 10:22:45;;;;;;;11.90;1.90;;;7.20;64.80;;;;;;5050597;28;20476;-80
2021/04/05 10:25:15;;;;;;;13.50;2.00;;;7.30;64.30;;;;;;5046210;28;20915;-77
2021/04/05 10:27:42;;;;;;;10.23;2.20;;;7.30;64.30;;;;;;5058496;28;20512;-76
2021/04/05 10:30:13;;;;;;;13.43;2.40;;;7.30;66.10;;;;;;5067466;28;20496;-77
2021/04/05 10:32:42;;;;;;;15.57;2.20;;;7.30;66.00;;;;;;5042900;28;20427;-76
2021/04/05 10:35:11;;;;;;;13.88;2.10;;;7.30;66.50;;;;;;5058860;28;20421;-75
2021/04/05 10:37:42;;;;;;;15.05;2.40;;;7.30;66.00;;;;;;5062987;28;20419;-76
2021/04/05 10:40:12;;;;;;;13.37;2.20;;;7.40;67.10;;;;;;5062225;28;20422;-76
2021/04/05 10:42:45;;;;;;;9.75;2.08;;;7.50;66.80;;;;;;5067302;28;20451;-73
2021/04/05 10:45:19;;;;;;;14.75;2.05;;;7.60;65.10;;;;;;5064885;28;20415;-77
2021/04/05 10:47:55;;;;;;;11.30;1.80;;;7.70;64.20;;;;;;5070812;28;20791;-77
2021/04/05 10:50:27;;;;;;;13.98;2.20;;;7.80;62.20;;;;;;5064373;28;20943;-75
2021/04/05 10:52:57;;;;;;;16.08;2.03;;;7.90;59.70;;;;;;5057665;28;20475;-75
2021/04/05 10:55:27;;;;;;;14.93;2.05;;;8.10;57.10;;;;;;5055228;28;20465;-75
2021/04/05 10:57:56;;;;;;;16.35;2.78;;;8.00;56.60;;;;;;5067239;28;20514;-76
2021/04/05 11:00:27;;;;;;;17.33;2.60;;;8.00;57.10;;;;;;5062426;28;20423;-74
2021/04/05 11:03:03;;;;;;;11.35;2.17;;;7.90;60.90;;;;;;5062509;28;20977;-73
2021/04/05 11:05:33;;;;;;;10.20;1.60;;;7.90;60.60;;;;;;5045054;28;20891;-77
2021/04/05 11:08:01;;;;;;;8.52;1.50;;;7.90;59.70;;;;;;5054521;28;20413;-77
2021/04/05 11:10:31;;;;;;;13.83;2.00;;;7.90;56.40;;;;;;5053086;28;20517;-76
2021/04/05 11:13:02;;;;;;;10.90;2.08;;;7.90;56.90;;;;;;5059151;28;20423;-77
2021/04/05 11:15:29;;;;;;;14.52;2.17;;;8.00;57.50;;;;;;5058643;28;20518;-75
2021/04/05 11:18:02;;;;;;;11.43;1.97;;;8.10;58.70;;;;;;5044342;28;20421;-77
2021/04/05 11:20:32;;;;;;;10.82;2.10;;;8.20;58.70;;;;;;5058365;28;20854;-76
2021/04/05 11:23:05;;;;;;;10.68;1.70;;;8.30;58.90;;;;;;5041030;28;20864;-76
2021/04/05 11:25:35;;;;;;;9.70;1.73;;;8.30;60.30;;;;;;5045239;28;20424;-74
2021/04/05 11:28:09;;;;;;;9.10;1.45;;;8.40;57.40;;;;;;5063073;28;20473;-74
2021/04/05 11:30:39;;;;;;;13.55;1.70;;;8.50;60.30;;;;;;5061648;28;20430;-75
2021/04/05 11:33:08;;;;;;;10.30;1.70;;;8.40;67.40;;;;;;5062148;28;21294;-75
2021/04/05 11:35:37;;;;;;;9.73;1.75;;;8.20;75.30;;;;;;5059653;28;20446;-75
2021/04/05 11:38:07;;;;;;;10.77;1.90;;;7.90;76.10;;;;;;5055721;28;20421;-74
2021/04/05 11:40:36;;;;;;;7.20;1.67;;;7.90;77.50;;;;;;5054874;28;20446;-74
2021/04/05 11:43:03;;;;;;;7.90;1.35;;;7.90;73.90;;;;;;5064768;28;20485;-74
2021/04/05 11:45:33;;;;;;;7.97;1.83;;;7.90;73.20;;;;;;5059306;28;20777;-74
2021/04/05 11:48:05;;;;;;;8.50;1.90;;;7.90;74.00;;;;;;5044303;28;20425;-76
2021/04/05 11:50:33;;;;;;;10.50;1.88;;;7.90;74.90;;;;;;5060308;28;20494;-76
2021/04/05 11:53:07;;;;;;;11.38;1.60;;;7.90;76.90;;;;;;5042562;28;20514;-75
2021/04/05 11:55:37;;;;;;;5.47;1.40;;;7.90;74.10;;;;;;5048166;28;20420;-75
2021/04/05 11:58:07;;;;;;;7.03;1.40;;;7.90;72.00;;;;;;5039375;28;20436;-75
2021/04/05 12:00:38;;;;;;;8.73;1.50;;;7.90;70.90;;;;;;5065164;28;20512;-76
2021/04/05 12:03:16;;;;;;;8.75;1.50;;;7.90;67.60;;;;;;5044597;28;21035;-75
2021/04/05 12:05:48;;;;;;;10.33;1.40;;;8.00;66.70;;;;;;5059410;28;20409;-76
2021/04/05 12:08:21;;;;;;;9.93;1.75;;;8.00;64.00;;;;;;5056772;28;20409;-75
2021/04/05 12:10:51;;;;;;;10.77;1.53;;;8.10;63.20;;;;;;5042858;28;20456;-74
2021/04/05 12:13:22;;;;;;;14.18;1.65;;;8.20;64.60;;;;;;5061860;28;20413;-73
2021/04/05 12:15:56;;;;;;;13.80;1.88;;;8.40;65.10;;;;;;5061716;28;20519;-74
2021/04/05 12:18:23;;;;;;;8.10;1.45;;;8.50;65.50;;;;;;5058296;28;20512;-76
2021/04/05 12:21:00;;;;;;;10.32;2.00;;;8.80;66.20;;;;;;5042430;28;20429;-75
2021/04/05 12:23:26;;;;;;;11.57;1.83;;;9.00;63.10;;;;;;5038778;28;20978;-74
2021/04/05 12:25:54;;;;;;;10.98;1.92;;;9.00;62.60;;;;;;5044987;28;20425;-75
2021/04/05 12:28:20;;;;;;;10.75;1.83;;;9.20;60.60;;;;;;5044612;28;21276;-75
2021/04/05 12:30:53;;;;;;;8.15;1.63;;;9.30;56.90;;;;;;5057400;28;20770;-76
2021/04/05 12:33:26;;;;;;;19.00;2.00;;;9.40;54.00;;;;;;5068974;28;20503;-75
2021/04/05 12:35:54;;;;;;;8.57;1.83;;;9.40;52.20;;;;;;5062893;28;21158;-74
2021/04/05 12:38:30;;;;;;;6.90;1.20;;;9.40;53.40;;;;;;5059662;28;20497;-75
2021/04/05 12:40:57;;;;;;;6.68;1.48;;;9.50;51.60;;;;;;5058743;28;20895;-76
2021/04/05 12:43:28;;;;;;;11.23;1.80;;;9.60;51.30;;;;;;5063985;28;20415;-74
2021/04/05 12:45:57;;;;;;;17.58;2.30;;;9.70;51.50;;;;;;5039358;28;20971;-74
2021/04/05 12:48:26;;;;;;;10.73;1.80;;;9.60;55.50;;;;;;5055614;28;20905;-75
2021/04/05 12:50:59;;;;;;;13.10;2.00;;;9.40;61.30;;;;;;5064481;28;20765;-76
2021/04/05 12:53:29;;;;;;;10.63;1.80;;;9.10;71.60;;;;;;5052096;28;20431;-75
2021/04/05 12:55:57;;;;;;;10.37;2.00;;;8.60;77.50;;;;;;5056841;28;20442;-75
2021/04/05 12:58:28;;;;;;;9.57;2.40;;;8.20;82.30;;;;;;5063357;28;20421;-74
2021/04/05 13:00:55;;;;;;;10.60;3.00;;;7.90;85.40;;;;;;5063936;28;20431;-74
2021/04/05 13:03:26;;;;;;;11.73;2.50;;;7.70;88.60;;;;;;5061768;28;20453;-75
2021/04/05 13:06:00;;;;;;;9.45;1.83;;;7.70;90.00;;;;;;5060056;28;20419;-75